sensor_id;sensor_type;location;lat;lon;timestamp;P1;durP1;ratioP1;P2;durP2;ratioP2
30299;SDS011;17110;52.602;12.998;2024-01-30T00:00:46;9.43;;;6.18;;
30299;SDS011;17110;52.602;12.998;2024-01-30T00:05:46;11.05;;;5.95;;
30299;SDS011;17110;52.602;12.998;2024-01-30T00:10:47;8.43;;;6.13;;
30299;SDS011;17110;52.602;12.998;2024-01-30T00:15:49;7.55;;;5.82;;
30299;SDS011;17110;52.602;12.998;2024-01-30T00:20:50;8.50;;;6.30;;
30299;SDS011;17110;52.602;12.998;2024-01-30T00:25:50;6.85;;;5.68;;
30299;SDS011;17110;52.602;12.998;2024-01-30T00:30:52;8.52;;;6.15;;
30299;SDS011;17110;52.602;12.998;2024-01-30T00:35:53;8.48;;;5.88;;
30299;SDS011;17110;52.602;12.998;2024-01-30T00:40:53;9.27;;;6.25;;
30299;SDS011;17110;52.602;12.998;2024-01-30T00:45:55;7.05;;;5.55;;
30299;SDS011;17110;52.602;12.998;2024-01-30T00:50:56;8.80;;;6.25;;
30299;SDS011;17110;52.602;12.998;2024-01-30T00:55:57;6.93;;;6.22;;
30299;SDS011;17110;52.602;12.998;2024-01-30T01:00:59;7.20;;;6.45;;
30299;SDS011;17110;52.602;12.998;2024-01-30T01:05:59;7.93;;;6.40;;
30299;SDS011;17110;52.602;12.998;2024-01-30T01:11:00;7.63;;;6.20;;
30299;SDS011;17110;52.602;12.998;2024-01-30T01:16:02;6.70;;;6.00;;
30299;SDS011;17110;52.602;12.998;2024-01-30T01:21:03;7.40;;;6.05;;
30299;SDS011;17110;52.602;12.998;2024-01-30T01:26:04;10.88;;;6.47;;
30299;SDS011;17110;52.602;12.998;2024-01-30T01:31:06;9.32;;;7.05;;
30299;SDS011;17110;52.602;12.998;2024-01-30T01:36:07;9.25;;;6.88;;
30299;SDS011;17110;52.602;12.998;2024-01-30T01:41:07;9.63;;;7.25;;
30299;SDS011;17110;52.602;12.998;2024-01-30T01:46:09;9.95;;;6.50;;
30299;SDS011;17110;52.602;12.998;2024-01-30T01:51:10;7.70;;;6.72;;
30299;SDS011;17110;52.602;12.998;2024-01-30T01:56:11;9.95;;;7.60;;
30299;SDS011;17110;52.602;12.998;2024-01-30T02:01:13;8.35;;;6.78;;
30299;SDS011;17110;52.602;12.998;2024-01-30T02:06:14;8.85;;;6.32;;
30299;SDS011;17110;52.602;12.998;2024-01-30T02:11:15;7.38;;;6.63;;
30299;SDS011;17110;52.602;12.998;2024-01-30T02:16:18;11.07;;;7.63;;
30299;SDS011;17110;52.602;12.998;2024-01-30T02:21:20;10.63;;;8.02;;
30299;SDS011;17110;52.602;12.998;2024-01-30T02:26:20;10.70;;;7.15;;
30299;SDS011;17110;52.602;12.998;2024-01-30T02:31:21;10.88;;;7.28;;
30299;SDS011;17110;52.602;12.998;2024-01-30T02:36:23;10.63;;;7.65;;
30299;SDS011;17110;52.602;12.998;2024-01-30T02:41:23;10.55;;;6.78;;
30299;SDS011;17110;52.602;12.998;2024-01-30T02:46:24;9.75;;;7.88;;
30299;SDS011;17110;52.602;12.998;2024-01-30T02:51:26;9.77;;;7.55;;
30299;SDS011;17110;52.602;12.998;2024-01-30T02:56:27;8.27;;;7.13;;
30299;SDS011;17110;52.602;12.998;2024-01-30T03:01:27;11.00;;;8.18;;
30299;SDS011;17110;52.602;12.998;2024-01-30T03:06:29;10.73;;;7.22;;
30299;SDS011;17110;52.602;12.998;2024-01-30T03:11:30;11.88;;;8.02;;
30299;SDS011;17110;52.602;12.998;2024-01-30T03:16:30;9.30;;;6.93;;
30299;SDS011;17110;52.602;12.998;2024-01-30T03:21:32;8.93;;;7.30;;
30299;SDS011;17110;52.602;12.998;2024-01-30T03:26:33;9.57;;;7.28;;
30299;SDS011;17110;52.602;12.998;2024-01-30T03:31:34;9.70;;;7.50;;
30299;SDS011;17110;52.602;12.998;2024-01-30T03:36:36;9.38;;;7.45;;
30299;SDS011;17110;52.602;12.998;2024-01-30T03:41:36;8.48;;;7.40;;
30299;SDS011;17110;52.602;12.998;2024-01-30T03:46:37;11.60;;;7.95;;
30299;SDS011;17110;52.602;12.998;2024-01-30T03:51:39;10.88;;;7.75;;
30299;SDS011;17110;52.602;12.998;2024-01-30T03:56:39;10.85;;;7.97;;
30299;SDS011;17110;52.602;12.998;2024-01-30T04:01:40;9.27;;;7.65;;
30299;SDS011;17110;52.602;12.998;2024-01-30T04:06:42;10.65;;;7.90;;
30299;SDS011;17110;52.602;12.998;2024-01-30T04:11:43;9.30;;;7.38;;
30299;SDS011;17110;52.602;12.998;2024-01-30T04:16:43;12.50;;;9.07;;
30299;SDS011;17110;52.602;12.998;2024-01-30T04:21:45;9.65;;;8.00;;
30299;SDS011;17110;52.602;12.998;2024-01-30T04:26:46;10.50;;;7.88;;
30299;SDS011;17110;52.602;12.998;2024-01-30T04:31:46;11.00;;;7.78;;
30299;SDS011;17110;52.602;12.998;2024-01-30T04:36:48;11.13;;;7.57;;
30299;SDS011;17110;52.602;12.998;2024-01-30T04:41:49;13.00;;;8.52;;
30299;SDS011;17110;52.602;12.998;2024-01-30T04:46:50;10.43;;;9.05;;
30299;SDS011;17110;52.602;12.998;2024-01-30T04:51:52;10.45;;;8.27;;
30299;SDS011;17110;52.602;12.998;2024-01-30T04:56:52;11.32;;;9.02;;
30299;SDS011;17110;52.602;12.998;2024-01-30T05:01:53;11.30;;;8.82;;
30299;SDS011;17110;52.602;12.998;2024-01-30T05:06:55;12.25;;;7.95;;
30299;SDS011;17110;52.602;12.998;2024-01-30T05:11:55;11.35;;;8.68;;
30299;SDS011;17110;52.602;12.998;2024-01-30T05:16:56;9.90;;;8.07;;
30299;SDS011;17110;52.602;12.998;2024-01-30T05:21:58;10.23;;;7.97;;
30299;SDS011;17110;52.602;12.998;2024-01-30T05:26:59;9.77;;;7.60;;
30299;SDS011;17110;52.602;12.998;2024-01-30T05:31:59;10.43;;;7.63;;
30299;SDS011;17110;52.602;12.998;2024-01-30T05:37:01;10.27;;;8.00;;
30299;SDS011;17110;52.602;12.998;2024-01-30T05:42:02;9.57;;;7.97;;
30299;SDS011;17110;52.602;12.998;2024-01-30T05:47:03;11.25;;;7.97;;
30299;SDS011;17110;52.602;12.998;2024-01-30T05:52:05;9.68;;;7.30;;
30299;SDS011;17110;52.602;12.998;2024-01-30T05:57:06;10.73;;;7.72;;
30299;SDS011;17110;52.602;12.998;2024-01-30T06:02:07;9.98;;;7.57;;
30299;SDS011;17110;52.602;12.998;2024-01-30T06:07:09;10.77;;;7.57;;
30299;SDS011;17110;52.602;12.998;2024-01-30T06:12:09;11.88;;;8.63;;
30299;SDS011;17110;52.602;12.998;2024-01-30T06:17:10;13.43;;;8.85;;
30299;SDS011;17110;52.602;12.998;2024-01-30T06:22:12;11.85;;;8.27;;
30299;SDS011;17110;52.602;12.998;2024-01-30T06:27:12;12.48;;;8.85;;
30299;SDS011;17110;52.602;12.998;2024-01-30T06:32:13;10.45;;;8.43;;
30299;SDS011;17110;52.602;12.998;2024-01-30T06:37:15;11.73;;;8.75;;
30299;SDS011;17110;52.602;12.998;2024-01-30T06:42:16;13.15;;;9.13;;
30299;SDS011;17110;52.602;12.998;2024-01-30T06:47:16;13.18;;;8.60;;
30299;SDS011;17110;52.602;12.998;2024-01-30T06:52:18;12.90;;;8.73;;
30299;SDS011;17110;52.602;12.998;2024-01-30T06:57:19;20.38;;;14.18;;
30299;SDS011;17110;52.602;12.998;2024-01-30T07:02:19;21.30;;;14.68;;
30299;SDS011;17110;52.602;12.998;2024-01-30T07:07:21;13.70;;;11.20;;
30299;SDS011;17110;52.602;12.998;2024-01-30T07:12:22;13.82;;;11.13;;
30299;SDS011;17110;52.602;12.998;2024-01-30T07:17:23;11.05;;;8.85;;
30299;SDS011;17110;52.602;12.998;2024-01-30T07:22:25;10.18;;;8.30;;
30299;SDS011;17110;52.602;12.998;2024-01-30T07:27:25;12.75;;;10.10;;
30299;SDS011;17110;52.602;12.998;2024-01-30T07:32:26;12.38;;;9.85;;
30299;SDS011;17110;52.602;12.998;2024-01-30T07:37:28;14.13;;;10.15;;
30299;SDS011;17110;52.602;12.998;2024-01-30T07:42:28;10.13;;;8.70;;
30299;SDS011;17110;52.602;12.998;2024-01-30T07:47:29;10.73;;;8.57;;
30299;SDS011;17110;52.602;12.998;2024-01-30T07:52:31;13.95;;;10.73;;
30299;SDS011;17110;52.602;12.998;2024-01-30T07:57:32;15.32;;;11.82;;
30299;SDS011;17110;52.602;12.998;2024-01-30T08:02:32;14.90;;;10.18;;
30299;SDS011;17110;52.602;12.998;2024-01-30T08:07:34;10.15;;;8.10;;
30299;SDS011;17110;52.602;12.998;2024-01-30T08:12:35;21.52;;;15.35;;
30299;SDS011;17110;52.602;12.998;2024-01-30T08:17:35;37.92;;;23.65;;
30299;SDS011;17110;52.602;12.998;2024-01-30T08:22:39;39.33;;;24.45;;
30299;SDS011;17110;52.602;12.998;2024-01-30T08:27:39;34.88;;;22.75;;
30299;SDS011;17110;52.602;12.998;2024-01-30T08:32:40;19.45;;;14.70;;
30299;SDS011;17110;52.602;12.998;2024-01-30T08:37:42;14.02;;;9.70;;
30299;SDS011;17110;52.602;12.998;2024-01-30T08:42:42;10.65;;;8.15;;
30299;SDS011;17110;52.602;12.998;2024-01-30T08:47:43;10.98;;;8.80;;
30299;SDS011;17110;52.602;12.998;2024-01-30T08:52:45;11.10;;;8.32;;
30299;SDS011;17110;52.602;12.998;2024-01-30T08:57:46;12.75;;;9.32;;
30299;SDS011;17110;52.602;12.998;2024-01-30T09:02:46;11.20;;;8.57;;
30299;SDS011;17110;52.602;12.998;2024-01-30T09:07:48;11.45;;;8.27;;
30299;SDS011;17110;52.602;12.998;2024-01-30T09:12:49;12.70;;;8.75;;
30299;SDS011;17110;52.602;12.998;2024-01-30T09:17:49;16.73;;;10.63;;
30299;SDS011;17110;52.602;12.998;2024-01-30T09:22:51;17.25;;;10.90;;
30299;SDS011;17110;52.602;12.998;2024-01-30T09:27:52;16.40;;;11.05;;
30299;SDS011;17110;52.602;12.998;2024-01-30T09:32:53;13.40;;;8.32;;
30299;SDS011;17110;52.602;12.998;2024-01-30T09:37:55;11.65;;;8.73;;
30299;SDS011;17110;52.602;12.998;2024-01-30T09:42:55;12.63;;;7.97;;
30299;SDS011;17110;52.602;12.998;2024-01-30T09:47:59;11.20;;;7.63;;
30299;SDS011;17110;52.602;12.998;2024-01-30T09:53:01;13.77;;;8.05;;
30299;SDS011;17110;52.602;12.998;2024-01-30T09:58:01;10.18;;;7.68;;
30299;SDS011;17110;52.602;12.998;2024-01-30T10:03:02;12.38;;;7.80;;
30299;SDS011;17110;52.602;12.998;2024-01-30T10:08:07;12.20;;;7.22;;
30299;SDS011;17110;52.602;12.998;2024-01-30T10:13:07;7.93;;;6.18;;
30299;SDS011;17110;52.602;12.998;2024-01-30T10:18:08;8.80;;;6.55;;
30299;SDS011;17110;52.602;12.998;2024-01-30T10:23:10;10.15;;;6.15;;
30299;SDS011;17110;52.602;12.998;2024-01-30T10:28:12;8.68;;;6.82;;
30299;SDS011;17110;52.602;12.998;2024-01-30T10:33:12;9.52;;;6.03;;
30299;SDS011;17110;52.602;12.998;2024-01-30T10:38:14;8.48;;;6.10;;
30299;SDS011;17110;52.602;12.998;2024-01-30T10:43:19;7.15;;;5.40;;
30299;SDS011;17110;52.602;12.998;2024-01-30T10:48:22;7.63;;;5.28;;
30299;SDS011;17110;52.602;12.998;2024-01-30T10:53:27;9.90;;;5.20;;
30299;SDS011;17110;52.602;12.998;2024-01-30T10:58:31;9.07;;;5.82;;
30299;SDS011;17110;52.602;12.998;2024-01-30T11:03:32;8.52;;;5.53;;
30299;SDS011;17110;52.602;12.998;2024-01-30T11:08:34;8.70;;;5.57;;
30299;SDS011;17110;52.602;12.998;2024-01-30T11:13:35;10.77;;;5.30;;
30299;SDS011;17110;52.602;12.998;2024-01-30T11:18:35;7.00;;;4.90;;
30299;SDS011;17110;52.602;12.998;2024-01-30T11:23:38;8.40;;;5.32;;
30299;SDS011;17110;52.602;12.998;2024-01-30T11:28:38;10.13;;;5.65;;
30299;SDS011;17110;52.602;12.998;2024-01-30T11:33:39;8.32;;;5.60;;
30299;SDS011;17110;52.602;12.998;2024-01-30T11:38:41;7.32;;;5.35;;
30299;SDS011;17110;52.602;12.998;2024-01-30T11:43:41;6.22;;;4.82;;
30299;SDS011;17110;52.602;12.998;2024-01-30T11:48:42;7.45;;;5.38;;
30299;SDS011;17110;52.602;12.998;2024-01-30T11:53:44;9.50;;;5.60;;
30299;SDS011;17110;52.602;12.998;2024-01-30T11:58:45;6.90;;;5.10;;
30299;SDS011;17110;52.602;12.998;2024-01-30T12:03:49;7.43;;;5.03;;
30299;SDS011;17110;52.602;12.998;2024-01-30T12:08:58;7.25;;;4.97;;
30299;SDS011;17110;52.602;12.998;2024-01-30T12:13:59;7.80;;;5.47;;
30299;SDS011;17110;52.602;12.998;2024-01-30T12:19:00;9.63;;;5.18;;
30299;SDS011;17110;52.602;12.998;2024-01-30T12:24:02;8.75;;;5.57;;
30299;SDS011;17110;52.602;12.998;2024-01-30T12:29:04;7.22;;;5.22;;
30299;SDS011;17110;52.602;12.998;2024-01-30T12:34:04;10.07;;;5.65;;
30299;SDS011;17110;52.602;12.998;2024-01-30T12:39:06;8.70;;;4.85;;
30299;SDS011;17110;52.602;12.998;2024-01-30T12:44:13;8.43;;;5.40;;
30299;SDS011;17110;52.602;12.998;2024-01-30T12:49:14;7.25;;;5.22;;
30299;SDS011;17110;52.602;12.998;2024-01-30T12:54:16;7.00;;;5.25;;
30299;SDS011;17110;52.602;12.998;2024-01-30T12:59:16;12.55;;;6.45;;
30299;SDS011;17110;52.602;12.998;2024-01-30T13:04:17;13.05;;;5.43;;
30299;SDS011;17110;52.602;12.998;2024-01-30T13:09:19;8.43;;;5.47;;
30299;SDS011;17110;52.602;12.998;2024-01-30T13:14:19;8.98;;;5.63;;
30299;SDS011;17110;52.602;12.998;2024-01-30T13:19:20;8.82;;;5.78;;
30299;SDS011;17110;52.602;12.998;2024-01-30T13:24:22;14.52;;;7.00;;
30299;SDS011;17110;52.602;12.998;2024-01-30T13:29:23;10.45;;;6.05;;
30299;SDS011;17110;52.602;12.998;2024-01-30T13:34:23;8.02;;;5.43;;
30299;SDS011;17110;52.602;12.998;2024-01-30T13:39:25;7.28;;;4.95;;
30299;SDS011;17110;52.602;12.998;2024-01-30T13:44:26;8.77;;;6.60;;
30299;SDS011;17110;52.602;12.998;2024-01-30T13:49:26;9.23;;;5.80;;
30299;SDS011;17110;52.602;12.998;2024-01-30T13:54:28;9.52;;;5.70;;
30299;SDS011;17110;52.602;12.998;2024-01-30T13:59:29;7.28;;;5.18;;
30299;SDS011;17110;52.602;12.998;2024-01-30T14:04:30;8.65;;;5.82;;
30299;SDS011;17110;52.602;12.998;2024-01-30T14:09:32;11.18;;;6.55;;
30299;SDS011;17110;52.602;12.998;2024-01-30T14:14:32;10.77;;;6.75;;
30299;SDS011;17110;52.602;12.998;2024-01-30T14:19:33;10.23;;;6.80;;
30299;SDS011;17110;52.602;12.998;2024-01-30T14:24:36;9.65;;;6.53;;
30299;SDS011;17110;52.602;12.998;2024-01-30T14:29:37;11.18;;;6.90;;
30299;SDS011;17110;52.602;12.998;2024-01-30T14:34:37;11.35;;;6.47;;
30299;SDS011;17110;52.602;12.998;2024-01-30T14:39:39;12.02;;;7.55;;
30299;SDS011;17110;52.602;12.998;2024-01-30T14:44:40;12.85;;;8.13;;
30299;SDS011;17110;52.602;12.998;2024-01-30T14:49:41;14.00;;;7.13;;
30299;SDS011;17110;52.602;12.998;2024-01-30T14:54:43;11.27;;;7.22;;
30299;SDS011;17110;52.602;12.998;2024-01-30T14:59:44;11.90;;;7.47;;
30299;SDS011;17110;52.602;12.998;2024-01-30T15:04:44;10.40;;;7.25;;
30299;SDS011;17110;52.602;12.998;2024-01-30T15:09:46;12.50;;;7.82;;
30299;SDS011;17110;52.602;12.998;2024-01-30T15:14:47;13.50;;;9.48;;
30299;SDS011;17110;52.602;12.998;2024-01-30T15:19:47;11.88;;;8.52;;
30299;SDS011;17110;52.602;12.998;2024-01-30T15:24:49;11.50;;;8.23;;
30299;SDS011;17110;52.602;12.998;2024-01-30T15:29:50;11.40;;;7.32;;
30299;SDS011;17110;52.602;12.998;2024-01-30T15:34:51;11.18;;;8.65;;
30299;SDS011;17110;52.602;12.998;2024-01-30T15:39:53;12.95;;;8.18;;
30299;SDS011;17110;52.602;12.998;2024-01-30T15:44:53;15.32;;;8.13;;
30299;SDS011;17110;52.602;12.998;2024-01-30T15:49:54;18.38;;;8.05;;
30299;SDS011;17110;52.602;12.998;2024-01-30T15:54:56;10.93;;;8.07;;
30299;SDS011;17110;52.602;12.998;2024-01-30T15:59:56;12.23;;;8.25;;
30299;SDS011;17110;52.602;12.998;2024-01-30T16:04:57;11.07;;;8.20;;
30299;SDS011;17110;52.602;12.998;2024-01-30T16:09:59;11.82;;;8.75;;
30299;SDS011;17110;52.602;12.998;2024-01-30T16:15:00;9.77;;;8.23;;
30299;SDS011;17110;52.602;12.998;2024-01-30T16:20:01;9.63;;;7.03;;
30299;SDS011;17110;52.602;12.998;2024-01-30T16:25:03;10.90;;;7.72;;
30299;SDS011;17110;52.602;12.998;2024-01-30T16:30:05;10.63;;;7.78;;
30299;SDS011;17110;52.602;12.998;2024-01-30T16:35:06;9.63;;;7.47;;
30299;SDS011;17110;52.602;12.998;2024-01-30T16:40:08;9.05;;;7.53;;
30299;SDS011;17110;52.602;12.998;2024-01-30T16:45:09;15.18;;;7.75;;
30299;SDS011;17110;52.602;12.998;2024-01-30T16:50:10;12.82;;;9.75;;
30299;SDS011;17110;52.602;12.998;2024-01-30T16:55:12;11.93;;;9.15;;
30299;SDS011;17110;52.602;12.998;2024-01-30T17:00:13;14.70;;;9.52;;
30299;SDS011;17110;52.602;12.998;2024-01-30T17:05:14;15.57;;;9.70;;
30299;SDS011;17110;52.602;12.998;2024-01-30T17:10:16;15.45;;;10.27;;
30299;SDS011;17110;52.602;12.998;2024-01-30T17:15:17;14.57;;;10.93;;
30299;SDS011;17110;52.602;12.998;2024-01-30T17:20:17;12.70;;;10.15;;
30299;SDS011;17110;52.602;12.998;2024-01-30T17:25:19;13.85;;;10.07;;
30299;SDS011;17110;52.602;12.998;2024-01-30T17:30:20;13.45;;;11.05;;
30299;SDS011;17110;52.602;12.998;2024-01-30T17:35:21;14.88;;;9.82;;
30299;SDS011;17110;52.602;12.998;2024-01-30T17:40:23;11.88;;;9.15;;
30299;SDS011;17110;52.602;12.998;2024-01-30T17:45:24;15.77;;;9.60;;
30299;SDS011;17110;52.602;12.998;2024-01-30T17:50:24;15.18;;;9.27;;
30299;SDS011;17110;52.602;12.998;2024-01-30T17:55:26;14.02;;;10.25;;
30299;SDS011;17110;52.602;12.998;2024-01-30T18:00:27;11.50;;;9.02;;
30299;SDS011;17110;52.602;12.998;2024-01-30T18:05:28;11.43;;;9.40;;
30299;SDS011;17110;52.602;12.998;2024-01-30T18:10:30;15.73;;;9.77;;
30299;SDS011;17110;52.602;12.998;2024-01-30T18:15:30;13.88;;;10.27;;
30299;SDS011;17110;52.602;12.998;2024-01-30T18:20:31;11.90;;;8.82;;
30299;SDS011;17110;52.602;12.998;2024-01-30T18:25:33;31.42;;;23.75;;
30299;SDS011;17110;52.602;12.998;2024-01-30T18:30:33;27.05;;;19.63;;
30299;SDS011;17110;52.602;12.998;2024-01-30T18:35:34;19.33;;;13.00;;
30299;SDS011;17110;52.602;12.998;2024-01-30T18:40:36;18.33;;;11.45;;
30299;SDS011;17110;52.602;12.998;2024-01-30T18:45:37;14.38;;;9.60;;
30299;SDS011;17110;52.602;12.998;2024-01-30T18:50:37;12.23;;;9.48;;
30299;SDS011;17110;52.602;12.998;2024-01-30T18:55:39;13.45;;;9.50;;
30299;SDS011;17110;52.602;12.998;2024-01-30T19:00:40;15.32;;;11.02;;
30299;SDS011;17110;52.602;12.998;2024-01-30T19:05:41;18.60;;;11.40;;
30299;SDS011;17110;52.602;12.998;2024-01-30T19:10:43;14.57;;;11.32;;
30299;SDS011;17110;52.602;12.998;2024-01-30T19:15:44;13.25;;;10.60;;
30299;SDS011;17110;52.602;12.998;2024-01-30T19:20:44;13.20;;;11.32;;
30299;SDS011;17110;52.602;12.998;2024-01-30T19:25:46;15.45;;;12.23;;
30299;SDS011;17110;52.602;12.998;2024-01-30T19:30:47;16.52;;;11.45;;
30299;SDS011;17110;52.602;12.998;2024-01-30T19:35:48;15.32;;;11.32;;
30299;SDS011;17110;52.602;12.998;2024-01-30T19:40:49;12.57;;;10.38;;
30299;SDS011;17110;52.602;12.998;2024-01-30T19:45:50;10.75;;;9.10;;
30299;SDS011;17110;52.602;12.998;2024-01-30T19:50:52;13.48;;;9.88;;
30299;SDS011;17110;52.602;12.998;2024-01-30T19:55:54;14.75;;;10.50;;
30299;SDS011;17110;52.602;12.998;2024-01-30T20:00:54;11.80;;;10.45;;
30299;SDS011;17110;52.602;12.998;2024-01-30T20:05:55;16.00;;;11.88;;
30299;SDS011;17110;52.602;12.998;2024-01-30T20:10:57;20.17;;;11.07;;
30299;SDS011;17110;52.602;12.998;2024-01-30T20:15:58;14.60;;;11.10;;
30299;SDS011;17110;52.602;12.998;2024-01-30T20:20:58;11.68;;;9.43;;
30299;SDS011;17110;52.602;12.998;2024-01-30T20:26:00;13.20;;;9.38;;
30299;SDS011;17110;52.602;12.998;2024-01-30T20:31:01;16.30;;;10.02;;
30299;SDS011;17110;52.602;12.998;2024-01-30T20:36:02;14.90;;;10.43;;
30299;SDS011;17110;52.602;12.998;2024-01-30T20:41:07;14.23;;;10.88;;
30299;SDS011;17110;52.602;12.998;2024-01-30T20:46:08;15.50;;;10.35;;
30299;SDS011;17110;52.602;12.998;2024-01-30T20:51:09;12.73;;;10.15;;
30299;SDS011;17110;52.602;12.998;2024-01-30T20:56:11;11.15;;;9.18;;
30299;SDS011;17110;52.602;12.998;2024-01-30T21:01:11;13.50;;;10.73;;
30299;SDS011;17110;52.602;12.998;2024-01-30T21:06:12;14.80;;;10.75;;
30299;SDS011;17110;52.602;12.998;2024-01-30T21:11:14;17.33;;;10.27;;
30299;SDS011;17110;52.602;12.998;2024-01-30T21:16:15;13.63;;;9.90;;
30299;SDS011;17110;52.602;12.998;2024-01-30T21:21:16;13.75;;;10.50;;
30299;SDS011;17110;52.602;12.998;2024-01-30T21:26:18;12.98;;;9.05;;
30299;SDS011;17110;52.602;12.998;2024-01-30T21:31:18;12.75;;;9.90;;
30299;SDS011;17110;52.602;12.998;2024-01-30T21:36:19;13.18;;;10.35;;
30299;SDS011;17110;52.602;12.998;2024-01-30T21:41:21;12.48;;;9.82;;
30299;SDS011;17110;52.602;12.998;2024-01-30T21:46:24;12.65;;;9.82;;
30299;SDS011;17110;52.602;12.998;2024-01-30T21:51:25;12.10;;;9.73;;
30299;SDS011;17110;52.602;12.998;2024-01-30T21:56:27;11.90;;;8.85;;
30299;SDS011;17110;52.602;12.998;2024-01-30T22:01:28;12.82;;;9.50;;
30299;SDS011;17110;52.602;12.998;2024-01-30T22:06:28;13.38;;;9.90;;
30299;SDS011;17110;52.602;12.998;2024-01-30T22:11:30;13.13;;;10.80;;
30299;SDS011;17110;52.602;12.998;2024-01-30T22:16:31;18.55;;;10.63;;
30299;SDS011;17110;52.602;12.998;2024-01-30T22:21:32;15.07;;;11.40;;
30299;SDS011;17110;52.602;12.998;2024-01-30T22:26:39;17.40;;;11.50;;
30299;SDS011;17110;52.602;12.998;2024-01-30T22:31:39;13.52;;;10.70;;
30299;SDS011;17110;52.602;12.998;2024-01-30T22:36:40;15.05;;;10.45;;
30299;SDS011;17110;52.602;12.998;2024-01-30T22:41:42;16.45;;;11.68;;
30299;SDS011;17110;52.602;12.998;2024-01-30T22:46:42;15.45;;;10.85;;
30299;SDS011;17110;52.602;12.998;2024-01-30T22:51:43;13.93;;;11.02;;
30299;SDS011;17110;52.602;12.998;2024-01-30T22:56:45;13.43;;;11.02;;
30299;SDS011;17110;52.602;12.998;2024-01-30T23:01:46;14.55;;;11.23;;
30299;SDS011;17110;52.602;12.998;2024-01-30T23:06:47;14.52;;;11.07;;
30299;SDS011;17110;52.602;12.998;2024-01-30T23:11:49;12.32;;;10.13;;
30299;SDS011;17110;52.602;12.998;2024-01-30T23:16:49;13.43;;;10.57;;
30299;SDS011;17110;52.602;12.998;2024-01-30T23:21:50;16.85;;;9.98;;
30299;SDS011;17110;52.602;12.998;2024-01-30T23:26:52;12.30;;;9.73;;
30299;SDS011;17110;52.602;12.998;2024-01-30T23:31:53;12.23;;;8.95;;
30299;SDS011;17110;52.602;12.998;2024-01-30T23:36:53;14.32;;;9.27;;
30299;SDS011;17110;52.602;12.998;2024-01-30T23:41:55;12.27;;;8.25;;
30299;SDS011;17110;52.602;12.998;2024-01-30T23:46:56;9.70;;;8.43;;
30299;SDS011;17110;52.602;12.998;2024-01-30T23:51:56;10.60;;;8.10;;
30299;SDS011;17110;52.602;12.998;2024-01-30T23:56:58;10.30;;;8.43;;
